createdAt,value
2018-05-12T00:01:37.255Z,12.60
2018-05-12T00:04:05.477Z,12.50
2018-05-12T00:06:32.911Z,12.03
2018-05-12T00:09:00.350Z,12.10
2018-05-12T00:11:28.555Z,11.67
2018-05-12T00:13:56.767Z,11.83
2018-05-12T00:16:24.206Z,12.73
2018-05-12T00:18:51.656Z,12.50
2018-05-12T00:21:19.087Z,12.50
2018-05-12T00:23:46.525Z,11.27
2018-05-12T00:26:14.731Z,12.60
2018-05-12T00:28:42.174Z,13.80
2018-05-12T00:31:09.611Z,12.27
2018-05-12T00:33:37.815Z,13.10
2018-05-12T00:36:05.253Z,12.77
2018-05-12T00:38:33.459Z,12.30
2018-05-12T00:41:00.904Z,12.30
2018-05-12T00:43:28.341Z,13.30
2018-05-12T00:45:56.559Z,12.90
2018-05-12T00:48:24.119Z,13.50
2018-05-12T00:50:51.564Z,12.67
2018-05-12T00:53:19.000Z,13.27
2018-05-12T00:55:46.448Z,13.40
2018-05-12T00:58:14.658Z,13.20
2018-05-12T01:00:42.117Z,13.23
2018-05-12T01:03:09.551Z,13.97
2018-05-12T01:05:37.006Z,14.80
2018-05-12T01:08:04.451Z,15.20
2018-05-12T01:10:32.663Z,14.17
2018-05-12T01:13:00.115Z,15.90
2018-05-12T01:15:27.559Z,15.82
2018-05-12T01:17:55.402Z,15.47
2018-05-12T01:20:23.607Z,13.50
2018-05-12T01:22:51.046Z,13.77
2018-05-12T01:25:18.487Z,15.57
2018-05-12T01:27:46.695Z,14.40
2018-05-12T01:30:14.115Z,13.73
2018-05-12T01:32:42.331Z,15.40
2018-05-12T01:35:09.786Z,13.87
2018-05-12T01:37:37.225Z,14.83
2018-05-12T01:40:04.652Z,16.07
2018-05-12T01:42:32.880Z,15.10
2018-05-12T01:45:00.311Z,15.70
2018-05-12T01:47:27.751Z,14.20
2018-05-12T01:49:55.969Z,15.20
2018-05-12T01:52:23.412Z,14.47
2018-05-12T01:54:50.839Z,14.50
2018-05-12T01:57:19.046Z,13.30
2018-05-12T01:59:46.480Z,13.53
2018-05-12T02:02:14.691Z,14.40
2018-05-12T02:04:42.139Z,13.57
2018-05-12T02:07:09.591Z,13.27
2018-05-12T02:09:37.020Z,14.10
2018-05-12T02:12:05.239Z,13.77
2018-05-12T02:14:32.671Z,14.00
2018-05-12T02:17:00.131Z,14.53
2018-05-12T02:19:27.565Z,15.40
2018-05-12T02:21:55.775Z,13.95
2018-05-12T02:24:23.235Z,15.50
2018-05-12T02:26:50.677Z,14.37
2018-05-12T02:29:18.120Z,14.40
2018-05-12T02:31:46.933Z,14.30
2018-05-12T02:34:14.367Z,14.00
2018-05-12T02:36:41.822Z,13.47
2018-05-12T02:39:10.139Z,14.13
2018-05-12T02:41:37.495Z,13.40
2018-05-12T02:44:04.936Z,14.30
2018-05-12T02:46:32.384Z,14.07
2018-05-12T02:48:59.824Z,14.40
2018-05-12T02:51:28.016Z,13.20
2018-05-12T02:53:55.464Z,14.27
2018-05-12T02:56:22.903Z,15.70
2018-05-12T02:58:51.520Z,15.73
2018-05-12T03:01:18.957Z,16.03
2018-05-12T03:03:47.170Z,15.23
2018-05-12T03:06:14.599Z,15.57
2018-05-12T03:08:42.815Z,15.33
2018-05-12T03:11:10.246Z,15.47
2018-05-12T03:13:37.691Z,14.60
2018-05-12T03:16:06.831Z,15.77
2018-05-12T03:18:34.254Z,13.80
2018-05-12T03:21:01.685Z,16.33
2018-05-12T03:23:29.899Z,15.60
2018-05-12T03:25:57.419Z,15.23
2018-05-12T03:28:25.627Z,16.55
2018-05-12T03:30:53.059Z,15.80
2018-05-12T03:33:20.520Z,16.37
2018-05-12T03:35:48.720Z,15.03
2018-05-12T03:38:16.165Z,15.00
2018-05-12T03:40:43.606Z,15.00
2018-05-12T03:43:11.055Z,14.93
2018-05-12T03:45:39.256Z,15.70
2018-05-12T03:48:06.689Z,15.03
2018-05-12T03:50:34.900Z,14.17
2018-05-12T03:53:02.352Z,14.53
2018-05-12T03:55:29.802Z,14.17
2018-05-12T03:57:57.235Z,14.83
2018-05-12T04:00:26.368Z,14.70
2018-05-12T04:02:53.802Z,14.67
2018-05-12T04:05:33.172Z,14.50
2018-05-12T04:08:12.571Z,14.10
2018-05-12T04:10:42.795Z,14.27
2018-05-12T04:13:10.229Z,15.17
2018-05-12T04:15:38.451Z,14.10
2018-05-12T04:18:06.139Z,14.40
2018-05-12T04:20:34.093Z,16.03
2018-05-12T04:23:01.526Z,14.40
2018-05-12T04:25:28.970Z,15.30
2018-05-12T04:27:56.401Z,14.33
2018-05-12T04:30:24.615Z,14.13
2018-05-12T04:32:52.082Z,14.50
2018-05-12T04:35:19.787Z,14.73
2018-05-12T04:37:48.728Z,14.40
2018-05-12T04:40:16.156Z,15.67
2018-05-12T04:42:45.280Z,15.83
2018-05-12T04:45:12.732Z,15.60
2018-05-12T04:47:40.182Z,15.33
2018-05-12T04:50:07.640Z,15.00
2018-05-12T04:52:35.835Z,14.13
2018-05-12T04:55:03.280Z,15.02
2018-05-12T04:57:30.720Z,15.57
2018-05-12T04:59:58.939Z,14.93
2018-05-12T05:02:26.388Z,13.47
2018-05-12T05:04:53.828Z,14.93
2018-05-12T05:07:21.284Z,16.00
2018-05-12T05:09:48.723Z,17.90
2018-05-12T05:12:16.940Z,18.07
2018-05-12T05:14:44.384Z,18.10
2018-05-12T05:17:11.824Z,16.42
2018-05-12T05:19:39.279Z,17.57
2018-05-12T05:22:06.715Z,17.17
2018-05-12T05:24:34.914Z,16.83
2018-05-12T05:27:02.362Z,17.60
2018-05-12T05:29:29.812Z,18.50
2018-05-12T05:31:58.029Z,18.00
2018-05-12T05:34:25.491Z,19.80
2018-05-12T05:36:52.931Z,19.90
2018-05-12T05:39:20.399Z,19.45
2018-05-12T05:41:48.670Z,20.00
2018-05-12T05:44:16.099Z,20.67
2018-05-12T05:46:43.535Z,19.97
2018-05-12T05:49:11.768Z,16.97
2018-05-12T05:51:39.212Z,18.67
2018-05-12T05:54:06.647Z,18.30
2018-05-12T05:56:34.103Z,19.25
2018-05-12T05:59:01.540Z,17.23
2018-05-12T06:01:29.773Z,19.95
2018-05-12T06:03:57.204Z,19.37
2018-05-12T06:06:24.788Z,19.40
2018-05-12T06:08:52.220Z,19.80
2018-05-12T06:11:19.663Z,19.60
2018-05-12T06:13:47.099Z,19.83
2018-05-12T06:16:15.314Z,22.13
2018-05-12T06:18:42.765Z,18.73
2018-05-12T06:21:10.223Z,22.80
2018-05-12T06:23:37.656Z,22.50
2018-05-12T06:26:05.883Z,22.70
2018-05-12T06:28:33.440Z,23.03
2018-05-12T06:31:00.881Z,23.53
2018-05-12T06:33:28.414Z,23.83
2018-05-12T06:35:55.760Z,23.83
2018-05-12T06:38:23.971Z,24.90
2018-05-12T06:40:51.410Z,24.70
2018-05-12T06:43:18.858Z,25.67
2018-05-12T06:45:47.059Z,29.50
2018-05-12T06:48:14.510Z,27.57
2018-05-12T06:50:41.948Z,27.70
2018-05-12T06:53:09.389Z,28.60
2018-05-12T06:55:37.595Z,30.33
2018-05-12T06:58:05.046Z,30.37
2018-05-12T07:00:32.503Z,29.50
2018-05-12T07:02:59.939Z,30.57
2018-05-12T07:05:28.143Z,30.97
2018-05-12T07:07:56.946Z,29.87
2018-05-12T07:10:24.415Z,29.80
2018-05-12T07:12:51.854Z,28.30
2018-05-12T07:15:19.300Z,30.80
2018-05-12T07:17:46.747Z,30.43
2018-05-12T07:20:14.243Z,30.48
2018-05-12T07:22:41.688Z,30.93
2018-05-12T07:25:09.127Z,31.40
2018-05-12T07:27:36.567Z,29.13
2018-05-12T07:30:05.692Z,28.27
2018-05-12T07:32:33.132Z,28.70
2018-05-12T07:35:00.564Z,28.20
2018-05-12T07:37:28.792Z,28.43
2018-05-12T07:39:56.260Z,25.63
2018-05-12T07:42:23.700Z,28.33
2018-05-12T08:00:55.458Z,29.30
2018-05-12T08:03:22.988Z,30.03
2018-05-12T08:05:50.372Z,29.87
2018-05-12T08:08:17.811Z,29.30
2018-05-12T08:10:45.249Z,27.65
2018-05-12T08:13:12.702Z,27.80
2018-05-12T08:15:40.155Z,30.20
2018-05-12T08:18:07.616Z,27.70
2018-05-12T08:20:35.841Z,26.00
2018-05-12T08:23:03.261Z,24.97
2018-05-12T08:25:31.478Z,26.30
2018-05-12T08:27:58.926Z,25.80
2018-05-12T08:30:26.387Z,25.90
2018-05-12T08:32:53.828Z,26.33
2018-05-12T08:35:21.332Z,22.10
2018-05-12T08:37:48.771Z,22.33
2018-05-12T08:40:16.219Z,23.93
2018-05-12T08:42:43.659Z,22.60
2018-05-12T08:45:11.098Z,25.00
2018-05-12T08:47:39.297Z,23.77
2018-05-12T08:50:06.746Z,23.67
2018-05-12T08:52:34.199Z,18.42
2018-05-12T08:55:02.442Z,18.07
2018-05-12T08:57:29.863Z,18.30
2018-05-12T08:59:57.327Z,20.53
2018-05-12T09:02:24.763Z,19.48
2018-05-12T09:04:52.218Z,19.58
2018-05-12T09:07:19.679Z,18.67
2018-05-12T09:09:47.123Z,19.17
2018-05-12T09:12:14.568Z,13.20
2018-05-12T09:14:42.011Z,10.38
2018-05-12T09:17:10.224Z,8.77
2018-05-12T09:19:37.663Z,9.83
2018-05-12T09:22:05.091Z,9.00
2018-05-12T09:24:33.313Z,12.00
2018-05-12T09:27:00.747Z,9.20
2018-05-12T09:29:28.255Z,9.33
2018-05-12T09:31:55.692Z,8.80
2018-05-12T09:34:23.135Z,7.70
2018-05-12T09:36:50.580Z,7.57
2018-05-12T09:39:18.020Z,6.57
2018-05-12T09:41:46.240Z,8.10
2018-05-12T09:44:13.681Z,7.87
2018-05-12T09:46:41.131Z,7.90
2018-05-12T09:49:08.562Z,9.37
2018-05-12T09:51:36.783Z,7.70
2018-05-12T09:54:04.251Z,7.80
2018-05-12T09:56:31.715Z,7.33
2018-05-12T09:58:59.144Z,7.43
2018-05-12T10:01:26.583Z,7.00
2018-05-12T10:03:54.023Z,7.27
2018-05-12T10:06:22.231Z,6.03
2018-05-12T10:08:49.670Z,5.60
2018-05-12T10:11:17.110Z,5.27
2018-05-12T10:13:45.323Z,6.67
2018-05-12T10:16:12.780Z,6.37
2018-05-12T10:18:40.223Z,6.35
2018-05-12T10:21:07.658Z,7.10
2018-05-12T10:23:35.856Z,6.43
2018-05-12T10:26:03.303Z,6.60
2018-05-12T10:28:31.519Z,7.33
2018-05-12T10:30:59.144Z,8.27
2018-05-12T10:33:26.579Z,6.60
2018-05-12T10:35:54.798Z,7.87
2018-05-12T10:38:22.228Z,9.53
2018-05-12T10:40:49.662Z,6.30
2018-05-12T10:43:17.871Z,7.28
2018-05-12T10:45:45.311Z,8.50
2018-05-12T10:48:13.524Z,8.80
2018-05-12T10:50:40.979Z,8.00
2018-05-12T10:53:08.429Z,13.43
2018-05-12T10:55:35.861Z,8.30
2018-05-12T10:58:04.059Z,6.17
2018-05-12T11:00:31.498Z,7.57
2018-05-12T11:02:58.934Z,7.50
2018-05-12T11:05:27.150Z,10.40
2018-05-12T11:07:54.584Z,8.00
2018-05-12T11:10:22.035Z,8.00
2018-05-12T11:12:50.258Z,8.30
2018-05-12T11:15:17.690Z,7.40
2018-05-12T11:17:45.133Z,7.50
2018-05-12T11:20:12.672Z,9.30
2018-05-12T11:22:40.804Z,9.03
2018-05-12T11:25:08.243Z,8.10
2018-05-12T11:27:35.692Z,8.40
2018-05-12T11:30:03.192Z,8.90
2018-05-12T11:32:32.153Z,8.40
2018-05-12T11:34:59.592Z,9.90
2018-05-12T11:37:27.036Z,9.60
2018-05-12T11:39:55.243Z,8.33
2018-05-12T11:42:22.693Z,8.30
2018-05-12T11:44:50.122Z,8.05
2018-05-12T11:47:18.342Z,10.63
2018-05-12T11:49:45.783Z,9.13
2018-05-12T11:52:13.231Z,8.77
2018-05-12T11:54:40.671Z,8.13
2018-05-12T11:57:08.887Z,8.70
2018-05-12T11:59:36.318Z,7.57
2018-05-12T12:02:03.771Z,7.00
2018-05-12T12:04:31.207Z,8.60
2018-05-12T12:06:59.407Z,7.50
2018-05-12T12:09:26.859Z,8.57
2018-05-12T12:11:54.302Z,9.20
2018-05-12T12:14:22.495Z,8.90
2018-05-12T12:16:49.946Z,10.47
2018-05-12T12:19:17.388Z,10.07
2018-05-12T12:21:45.603Z,8.87
2018-05-12T12:24:13.035Z,8.00
2018-05-12T12:26:40.478Z,9.10
2018-05-12T12:29:08.692Z,8.63
2018-05-12T12:31:36.132Z,8.13
2018-05-12T12:34:03.555Z,7.93
2018-05-12T12:36:31.768Z,8.40
2018-05-12T12:38:59.205Z,8.10
2018-05-12T12:41:27.400Z,7.93
2018-05-12T12:43:54.840Z,8.37
2018-05-12T12:46:22.266Z,6.87
2018-05-12T12:48:49.715Z,6.80
2018-05-12T12:51:17.925Z,7.90
2018-05-12T12:53:46.142Z,8.30
2018-05-12T12:56:13.573Z,6.40
2018-05-12T12:58:41.025Z,7.80
2018-05-12T13:01:08.466Z,7.77
2018-05-12T13:03:36.660Z,7.10
2018-05-12T13:06:04.099Z,8.33
2018-05-12T13:08:32.320Z,6.70
2018-05-12T13:10:59.739Z,7.63
2018-05-12T13:13:27.183Z,6.40
2018-05-12T13:15:55.508Z,6.30
2018-05-12T13:18:22.867Z,6.40
2018-05-12T13:20:50.305Z,6.53
2018-05-12T13:23:17.739Z,7.40
2018-05-12T13:25:45.173Z,7.57
2018-05-12T13:28:13.378Z,6.00
2018-05-12T13:30:40.811Z,6.17
2018-05-12T13:33:09.019Z,6.17
2018-05-12T13:35:36.450Z,6.37
2018-05-12T13:38:04.643Z,5.90
2018-05-12T13:40:32.074Z,6.07
2018-05-12T13:43:00.284Z,7.30
2018-05-12T13:45:27.703Z,5.40
2018-05-12T13:47:55.907Z,5.53
2018-05-12T13:50:23.344Z,5.50
2018-05-12T13:52:51.545Z,5.83
2018-05-12T13:55:18.975Z,5.50
2018-05-12T13:57:47.196Z,6.30
2018-05-12T14:00:14.623Z,5.37
2018-05-12T14:02:42.057Z,5.27
2018-05-12T14:05:10.333Z,5.50
2018-05-12T14:07:37.756Z,6.23
2018-05-12T14:10:05.191Z,5.45
2018-05-12T14:12:32.623Z,5.57
2018-05-12T14:15:00.082Z,5.20
2018-05-12T14:17:27.523Z,5.63
2018-05-12T14:19:55.664Z,5.03
2018-05-12T14:22:23.105Z,5.30
2018-05-12T14:24:50.530Z,4.67
2018-05-12T14:27:17.963Z,5.57
2018-05-12T14:29:46.166Z,5.37
2018-05-12T14:32:13.601Z,5.70
2018-05-12T14:34:41.909Z,5.30
2018-05-12T14:37:09.382Z,5.30
2018-05-12T14:39:36.829Z,5.23
2018-05-12T14:42:04.259Z,5.10
2018-05-12T14:44:31.700Z,5.47
2018-05-12T14:46:59.899Z,5.30
2018-05-12T14:49:27.349Z,5.80
2018-05-12T14:51:55.551Z,5.07
2018-05-12T14:54:23.016Z,5.10
2018-05-12T14:56:50.453Z,5.40
2018-05-12T14:59:17.899Z,5.77
2018-05-12T15:01:45.349Z,5.70
2018-05-12T15:04:13.557Z,4.90
2018-05-12T15:06:40.987Z,5.47
2018-05-12T15:09:08.431Z,5.27
2018-05-12T15:11:36.636Z,5.03
2018-05-12T15:14:04.095Z,5.33
2018-05-12T15:16:31.546Z,4.87
2018-05-12T15:18:58.993Z,5.20
2018-05-12T15:21:26.489Z,4.90
2018-05-12T15:23:54.627Z,5.50
2018-05-12T15:26:22.073Z,5.13
2018-05-12T15:28:49.532Z,4.93
2018-05-12T15:31:16.960Z,4.93
2018-05-12T15:33:44.395Z,4.70
2018-05-12T15:36:11.893Z,4.33
2018-05-12T15:38:39.295Z,4.72
2018-05-12T15:41:06.751Z,5.30
2018-05-12T15:43:34.224Z,5.83
2018-05-12T15:46:01.615Z,5.20
2018-05-12T15:48:29.804Z,4.60
2018-05-12T15:50:57.245Z,4.97
2018-05-12T15:53:25.434Z,4.80
2018-05-12T15:55:52.869Z,5.73
2018-05-12T15:58:21.065Z,4.80
2018-05-12T16:00:48.545Z,4.60
2018-05-12T16:03:16.036Z,4.80
2018-05-12T16:05:44.171Z,4.67
2018-05-12T16:08:11.612Z,5.15
2018-05-12T16:10:39.816Z,5.10
2018-05-12T16:13:07.259Z,6.12
2018-05-12T16:15:34.706Z,4.80
2018-05-12T16:18:02.896Z,5.20
2018-05-12T16:20:30.386Z,5.23
2018-05-12T16:22:58.519Z,5.47
2018-05-12T16:25:25.962Z,15.80
2018-05-12T16:27:54.162Z,5.50
2018-05-12T16:30:21.613Z,5.20
2018-05-12T16:32:49.057Z,5.53
2018-05-12T16:35:16.934Z,5.12
2018-05-12T16:37:44.359Z,5.17
2018-05-12T16:40:12.595Z,4.90
2018-05-12T16:42:40.016Z,5.40
2018-05-12T16:45:07.453Z,5.33
2018-05-12T16:47:35.647Z,4.80
2018-05-12T16:50:03.119Z,4.80
2018-05-12T16:52:30.551Z,4.40
2018-05-12T16:54:57.984Z,4.57
2018-05-12T16:57:25.419Z,5.25
2018-05-12T16:59:52.879Z,4.73
2018-05-12T17:02:20.308Z,5.20
2018-05-12T17:04:47.751Z,4.90
2018-05-12T17:07:15.196Z,4.60
2018-05-12T17:09:42.636Z,4.37
2018-05-12T17:12:10.846Z,4.60
2018-05-12T17:14:38.270Z,4.60
2018-05-12T17:17:06.488Z,4.80
2018-05-12T17:19:33.918Z,4.75
2018-05-12T17:22:01.360Z,4.90
2018-05-12T17:24:29.549Z,5.10
2018-05-12T17:26:57.025Z,4.40
2018-05-12T17:29:24.621Z,5.00
2018-05-12T17:31:52.069Z,5.23
2018-05-12T17:34:19.505Z,4.80
2018-05-12T17:36:46.935Z,4.20
2018-05-12T17:39:14.362Z,4.97
2018-05-12T17:41:41.807Z,4.30
2018-05-12T17:44:09.236Z,4.53
2018-05-12T17:46:36.676Z,5.47
2018-05-12T17:49:04.103Z,5.67
2018-05-12T17:51:32.306Z,5.00
2018-05-12T17:53:59.752Z,5.40
2018-05-12T17:56:27.244Z,5.20
2018-05-12T17:58:54.703Z,5.13
2018-05-12T18:01:22.172Z,4.80
2018-05-12T18:03:49.669Z,5.20
2018-05-12T18:06:17.035Z,5.10
2018-05-12T18:08:44.457Z,5.03
2018-05-12T18:11:12.659Z,5.80
2018-05-12T18:13:40.855Z,4.83
2018-05-12T18:16:08.299Z,5.10
2018-05-12T18:18:35.744Z,5.00
2018-05-12T18:21:03.971Z,5.20
2018-05-12T18:23:31.399Z,5.70
2018-05-12T18:25:58.833Z,4.83
2018-05-12T18:28:27.040Z,5.60
2018-05-12T18:30:54.472Z,4.90
2018-05-12T18:33:22.680Z,5.23
2018-05-12T18:35:50.124Z,5.57
2018-05-12T18:38:17.560Z,6.00
2018-05-12T18:40:45.763Z,5.83
2018-05-12T18:43:13.231Z,5.17
2018-05-12T18:45:40.667Z,5.53
2018-05-12T18:48:08.107Z,6.40
2018-05-12T18:50:35.548Z,8.37
2018-05-12T18:53:03.759Z,7.60
2018-05-12T18:55:31.199Z,7.03
2018-05-12T18:57:59.416Z,6.77
2018-05-12T19:00:26.847Z,6.80
2018-05-12T19:02:54.291Z,6.60
2018-05-12T19:05:22.145Z,6.80
2018-05-12T19:07:50.374Z,6.50
2018-05-12T19:10:17.810Z,8.20
2018-05-12T19:12:45.252Z,9.37
2018-05-12T19:15:12.685Z,7.70
2018-05-12T19:17:40.903Z,9.47
2018-05-12T19:20:08.372Z,11.77
2018-05-12T19:22:35.811Z,8.77
2018-05-12T19:25:03.240Z,8.90
2018-05-12T19:27:31.435Z,8.60
2018-05-12T19:29:58.871Z,7.20
2018-05-12T19:32:27.378Z,5.97
2018-05-12T19:34:54.813Z,5.97
2018-05-12T19:37:23.032Z,6.60
2018-05-12T19:39:50.476Z,6.50
2018-05-12T19:42:17.912Z,7.67
2018-05-12T19:44:45.394Z,8.07
2018-05-12T19:47:12.835Z,7.33
2018-05-12T19:49:40.419Z,9.00
2018-05-12T19:52:08.655Z,9.07
2018-05-12T19:54:37.603Z,7.68
2018-05-12T19:57:05.072Z,8.03
2018-05-12T19:59:32.507Z,7.67
2018-05-12T20:01:59.943Z,8.57
2018-05-12T20:04:27.395Z,8.57
2018-05-12T20:06:54.883Z,9.35
2018-05-12T20:09:22.343Z,13.40
2018-05-12T20:11:49.775Z,13.83
2018-05-12T20:14:17.216Z,8.00
2018-05-12T20:16:44.680Z,7.72
2018-05-12T20:19:12.107Z,6.67
2018-05-12T20:21:40.449Z,6.97
2018-05-12T20:24:07.977Z,6.43
2018-05-12T20:26:35.397Z,6.73
2018-05-12T20:29:03.597Z,6.07
2018-05-12T20:31:31.021Z,6.30
2018-05-12T20:33:58.477Z,6.30
2018-05-12T20:36:26.003Z,6.80
2018-05-12T20:38:53.461Z,5.57
2018-05-12T20:41:20.882Z,5.90
2018-05-12T20:43:48.313Z,7.43
2018-05-12T20:46:16.509Z,6.23
2018-05-12T20:48:43.949Z,6.80
2018-05-12T20:51:12.151Z,7.05
2018-05-12T20:53:39.603Z,6.32
2018-05-12T20:56:07.027Z,6.43
2018-05-12T20:58:34.460Z,6.87
2018-05-12T21:01:01.892Z,5.80
2018-05-12T21:03:29.319Z,6.10
2018-05-12T21:05:56.760Z,5.47
2018-05-12T21:08:24.968Z,5.47
2018-05-12T21:10:52.407Z,4.90
2018-05-12T21:13:19.835Z,4.68
2018-05-12T21:15:47.281Z,4.20
2018-05-12T21:18:14.720Z,4.60
2018-05-12T21:20:42.163Z,4.20
2018-05-12T21:23:09.611Z,4.13
2018-05-12T21:25:37.059Z,4.10
2018-05-12T21:28:04.497Z,4.03
2018-05-12T21:30:32.703Z,4.30
2018-05-12T21:33:00.131Z,4.23
2018-05-12T21:35:27.753Z,3.77
2018-05-12T21:37:55.196Z,3.97
2018-05-12T21:40:22.661Z,4.07
2018-05-12T21:42:50.089Z,3.97
2018-05-12T21:45:17.602Z,3.97
2018-05-12T21:47:45.804Z,5.18
2018-05-12T21:50:13.263Z,4.80
2018-05-12T21:52:41.443Z,3.97
2018-05-12T21:55:08.883Z,3.67
2018-05-12T21:57:36.317Z,4.40
2018-05-12T22:00:05.264Z,4.97
2018-05-12T22:02:32.691Z,4.00
2018-05-12T22:05:00.911Z,5.23
2018-05-12T22:07:28.339Z,4.37
2018-05-12T22:09:55.770Z,4.83
2018-05-12T22:12:23.980Z,4.93
2018-05-12T22:14:51.406Z,4.20
2018-05-12T22:17:19.613Z,5.07
2018-05-12T22:19:47.039Z,4.60
2018-05-12T22:22:15.253Z,4.13
2018-05-12T22:24:42.730Z,4.57
2018-05-12T22:27:10.156Z,4.87
2018-05-12T22:29:37.587Z,4.77
2018-05-12T22:32:05.816Z,4.75
2018-05-12T22:34:33.264Z,4.70
2018-05-12T22:37:00.703Z,4.80
2018-05-12T22:39:28.131Z,4.57
2018-05-12T22:41:56.335Z,4.30
2018-05-12T22:44:23.766Z,4.50
2018-05-12T22:46:51.969Z,4.40
2018-05-12T22:49:19.433Z,4.57
2018-05-12T22:51:46.861Z,4.70
2018-05-12T22:54:14.295Z,4.97
2018-05-12T22:56:42.499Z,5.13
2018-05-12T22:59:10.031Z,5.70
2018-05-12T23:01:38.235Z,4.83
2018-05-12T23:04:05.848Z,5.50
2018-05-12T23:06:33.209Z,5.40
2018-05-12T23:09:02.156Z,5.17
2018-05-12T23:11:30.367Z,5.23
2018-05-12T23:13:57.791Z,5.50
2018-05-12T23:16:25.256Z,5.40
2018-05-12T23:18:52.975Z,5.57
2018-05-12T23:21:21.175Z,5.37
2018-05-12T23:23:48.607Z,5.40
2018-05-12T23:26:18.342Z,5.03
2018-05-12T23:28:45.783Z,5.73
2018-05-12T23:31:13.987Z,5.33
2018-05-12T23:33:41.433Z,5.53
2018-05-12T23:36:08.862Z,5.07
2018-05-12T23:38:37.067Z,5.35
2018-05-12T23:41:04.501Z,5.60
2018-05-12T23:43:32.708Z,6.37
2018-05-12T23:46:00.135Z,6.23
2018-05-12T23:48:27.654Z,5.50
2018-05-12T23:50:55.088Z,5.37
2018-05-12T23:53:22.557Z,5.90
2018-05-12T23:55:50.002Z,5.43
2018-05-12T23:58:17.513Z,5.87
